createdAt,value
2022-11-29T00:00:46.770Z,6.42
2022-11-29T00:01:49.005Z,6.31
2022-11-29T00:02:49.217Z,6.19
2022-11-29T00:03:47.724Z,6.19
2022-11-29T00:04:48.032Z,6.27
2022-11-29T00:05:48.548Z,6.39
2022-11-29T00:06:48.571Z,6.36
2022-11-29T00:07:48.916Z,6.28
2022-11-29T00:08:51.063Z,6.22
2022-11-29T00:09:51.252Z,6.22
2022-11-29T00:10:50.682Z,6.16
2022-11-29T00:11:50.841Z,6.26
2022-11-29T00:12:51.258Z,6.17
2022-11-29T00:13:52.520Z,6.28
2022-11-29T00:14:52.692Z,6.26
2022-11-29T00:15:51.996Z,6.36
2022-11-29T00:16:52.442Z,6.30
2022-11-29T00:17:52.753Z,6.28
2022-11-29T00:18:54.006Z,6.20
2022-11-29T00:19:53.352Z,6.26
2022-11-29T00:20:55.551Z,6.33
2022-11-29T00:21:52.952Z,6.28
2022-11-29T00:22:53.251Z,6.28
2022-11-29T00:23:55.430Z,6.30
2022-11-29T00:24:53.815Z,6.36
2022-11-29T00:25:54.122Z,6.41
2022-11-29T00:26:55.316Z,6.35
2022-11-29T00:27:54.673Z,6.49
2022-11-29T00:28:55.889Z,6.38
2022-11-29T00:29:57.181Z,6.19
2022-11-29T00:30:57.300Z,6.39
2022-11-29T00:31:57.414Z,6.44
2022-11-29T00:32:58.112Z,6.33
2022-11-29T00:33:58.279Z,6.28
2022-11-29T00:34:59.706Z,6.33
2022-11-29T00:35:58.634Z,6.30
2022-11-29T00:36:59.333Z,6.16
2022-11-29T00:37:57.719Z,6.19
2022-11-29T00:38:58.024Z,6.19
2022-11-29T00:39:59.207Z,6.30
2022-11-29T00:41:00.399Z,6.26
2022-11-29T00:42:00.588Z,6.14
2022-11-29T00:43:00.782Z,6.12
2022-11-29T00:44:01.436Z,6.33
2022-11-29T00:45:01.633Z,6.17
2022-11-29T00:46:01.874Z,6.30
2022-11-29T00:47:02.044Z,6.24
2022-11-29T00:48:02.230Z,6.30
2022-11-29T00:49:02.897Z,6.27
2022-11-29T00:50:03.083Z,6.28
2022-11-29T00:51:01.594Z,6.22
2022-11-29T00:52:03.763Z,6.38
2022-11-29T00:53:03.942Z,6.54
2022-11-29T00:54:02.440Z,6.44
2022-11-29T00:55:04.649Z,6.44
2022-11-29T00:56:03.020Z,6.28
2022-11-29T00:57:05.337Z,6.35
2022-11-29T00:58:05.518Z,6.30
2022-11-29T00:59:07.169Z,6.31
2022-11-29T01:00:04.199Z,6.14
2022-11-29T01:01:06.456Z,6.24
2022-11-29T01:02:04.912Z,6.33
2022-11-29T01:03:05.179Z,6.30
2022-11-29T01:04:07.353Z,6.27
2022-11-29T01:05:05.624Z,6.22
2022-11-29T01:06:07.813Z,6.33
2022-11-29T01:07:06.192Z,6.27
2022-11-29T01:08:06.493Z,6.16
2022-11-29T01:09:08.716Z,6.16
2022-11-29T01:10:07.087Z,6.16
2022-11-29T01:11:07.402Z,6.14
2022-11-29T01:12:07.698Z,6.17
2022-11-29T01:13:08.012Z,6.17
2022-11-29T01:14:10.171Z,6.31
2022-11-29T01:15:10.364Z,6.14
2022-11-29T01:16:08.875Z,6.11
2022-11-29T01:17:11.055Z,6.19
2022-11-29T01:18:09.443Z,6.30
2022-11-29T01:19:10.713Z,6.22
2022-11-29T01:20:11.034Z,6.31
2022-11-29T01:21:11.390Z,6.17
2022-11-29T01:22:12.589Z,6.20
2022-11-29T01:23:10.959Z,6.14
2022-11-29T01:24:11.270Z,6.02
2022-11-29T01:25:11.573Z,6.22
2022-11-29T01:26:13.737Z,6.33
2022-11-29T01:27:13.920Z,6.44
2022-11-29T01:28:12.428Z,6.60
2022-11-29T01:29:12.729Z,6.41
2022-11-29T01:30:13.042Z,6.48
2022-11-29T01:31:13.465Z,6.28
2022-11-29T01:32:15.564Z,6.39
2022-11-29T01:33:13.928Z,6.38
2022-11-29T01:34:14.238Z,6.24
2022-11-29T01:35:14.551Z,6.24
2022-11-29T01:36:14.862Z,6.22
2022-11-29T01:37:17.039Z,6.33
2022-11-29T01:38:17.223Z,6.39
2022-11-29T01:39:15.729Z,6.30
2022-11-29T01:40:16.040Z,6.33
2022-11-29T01:41:16.352Z,6.35
2022-11-29T01:42:16.664Z,6.36
2022-11-29T01:43:18.862Z,6.52
2022-11-29T01:44:17.250Z,6.41
2022-11-29T01:45:17.631Z,6.20
2022-11-29T01:46:17.868Z,6.20
2022-11-29T01:47:19.972Z,6.33
2022-11-29T01:48:20.165Z,6.41
2022-11-29T01:49:20.334Z,6.42
2022-11-29T01:50:21.053Z,6.36
2022-11-29T01:51:21.184Z,6.35
2022-11-29T01:52:19.569Z,6.30
2022-11-29T01:53:21.758Z,6.46
2022-11-29T01:54:21.943Z,6.30
2022-11-29T01:55:22.125Z,6.20
2022-11-29T01:56:22.316Z,6.20
2022-11-29T01:57:21.062Z,6.22
2022-11-29T01:58:23.254Z,6.24
2022-11-29T01:59:23.457Z,6.17
2022-11-29T02:00:21.972Z,6.31
2022-11-29T02:01:23.364Z,6.26
2022-11-29T02:02:22.645Z,6.30
2022-11-29T02:03:22.925Z,6.14
2022-11-29T02:04:25.114Z,6.05
2022-11-29T02:05:23.510Z,6.20
2022-11-29T02:06:23.817Z,6.24
2022-11-29T02:07:24.158Z,6.14
2022-11-29T02:08:24.448Z,6.19
2022-11-29T02:09:26.630Z,6.33
2022-11-29T02:10:26.833Z,6.27
2022-11-29T02:11:25.339Z,6.27
2022-11-29T02:12:25.651Z,6.30
2022-11-29T02:13:25.957Z,6.36
2022-11-29T02:14:28.139Z,6.35
2022-11-29T02:15:27.525Z,6.42
2022-11-29T02:16:28.721Z,6.42
2022-11-29T02:17:28.900Z,6.35
2022-11-29T02:18:29.063Z,6.28
2022-11-29T02:19:29.245Z,6.33
2022-11-29T02:20:29.946Z,6.39
2022-11-29T02:21:30.142Z,6.20
2022-11-29T02:22:30.346Z,6.19
2022-11-29T02:23:30.504Z,6.42
2022-11-29T02:24:31.185Z,6.35
2022-11-29T02:25:31.379Z,6.30
2022-11-29T02:26:33.055Z,6.39
2022-11-29T02:27:31.764Z,6.42
2022-11-29T02:28:32.469Z,6.48
2022-11-29T02:29:32.656Z,6.24
2022-11-29T02:30:32.867Z,6.41
2022-11-29T02:31:33.017Z,6.22
2022-11-29T02:32:33.712Z,6.22
2022-11-29T02:33:32.094Z,6.31
2022-11-29T02:34:34.285Z,6.48
2022-11-29T02:35:32.682Z,6.31
2022-11-29T02:36:32.998Z,6.17
2022-11-29T02:37:33.306Z,6.14
2022-11-29T02:38:33.618Z,6.27
2022-11-29T02:39:35.796Z,6.31
2022-11-29T02:40:34.186Z,6.38
2022-11-29T02:41:35.418Z,6.31
2022-11-29T02:42:34.806Z,6.39
2022-11-29T02:43:37.034Z,6.28
2022-11-29T02:44:37.218Z,6.28
2022-11-29T02:45:35.721Z,6.30
2022-11-29T02:46:36.038Z,6.20
2022-11-29T02:47:36.340Z,6.07
2022-11-29T02:48:36.650Z,6.30
2022-11-29T02:49:38.843Z,6.26
2022-11-29T02:50:37.242Z,6.26
2022-11-29T02:51:38.512Z,6.27
2022-11-29T02:52:37.887Z,6.36
2022-11-29T02:53:38.191Z,6.33
2022-11-29T02:54:38.495Z,6.20
2022-11-29T02:55:40.686Z,6.36
2022-11-29T02:56:41.832Z,6.27
2022-11-29T02:57:39.356Z,6.12
2022-11-29T02:58:39.671Z,6.17
2022-11-29T02:59:41.839Z,6.31
2022-11-29T03:00:41.022Z,6.45
2022-11-29T03:01:42.464Z,6.33
2022-11-29T03:02:40.870Z,6.33
2022-11-29T03:03:41.137Z,6.31
2022-11-29T03:04:42.567Z,6.26
2022-11-29T03:05:43.626Z,6.30
2022-11-29T03:06:43.811Z,6.16
2022-11-29T03:07:42.371Z,6.26
2022-11-29T03:08:42.667Z,6.22
2022-11-29T03:09:42.975Z,6.27
2022-11-29T03:10:45.171Z,6.36
2022-11-29T03:11:43.556Z,6.27
2022-11-29T03:12:45.736Z,6.27
2022-11-29T03:13:44.119Z,6.28
2022-11-29T03:14:44.601Z,6.27
2022-11-29T03:15:46.184Z,6.28
2022-11-29T03:16:45.040Z,6.46
2022-11-29T03:17:47.230Z,6.19
2022-11-29T03:18:45.620Z,6.11
2022-11-29T03:19:45.975Z,6.22
2022-11-29T03:20:48.121Z,6.20
2022-11-29T03:21:48.319Z,6.27
2022-11-29T03:22:46.831Z,6.31
2022-11-29T03:23:47.130Z,6.49
2022-11-29T03:24:49.324Z,6.35
2022-11-29T03:25:49.509Z,6.28
2022-11-29T03:26:49.715Z,6.08
2022-11-29T03:27:48.336Z,6.07
2022-11-29T03:28:48.647Z,6.24
2022-11-29T03:29:48.951Z,6.28
2022-11-29T03:30:51.178Z,6.36
2022-11-29T03:31:50.072Z,6.35
2022-11-29T03:32:49.820Z,6.26
2022-11-29T03:33:50.131Z,6.24
2022-11-29T03:34:55.686Z,6.30
2022-11-29T03:35:53.629Z,6.27
2022-11-29T03:36:52.829Z,6.26
2022-11-29T03:37:53.009Z,6.33
2022-11-29T03:38:53.203Z,6.33
2022-11-29T03:39:53.862Z,6.28
2022-11-29T03:40:54.050Z,6.11
2022-11-29T03:41:54.227Z,6.16
2022-11-29T03:42:52.864Z,6.16
2022-11-29T03:43:55.010Z,6.12
2022-11-29T03:44:55.184Z,6.17
2022-11-29T03:45:55.352Z,6.20
2022-11-29T03:46:55.520Z,6.12
2022-11-29T03:47:56.232Z,6.28
2022-11-29T03:48:56.416Z,6.35
2022-11-29T03:49:56.599Z,6.35
2022-11-29T03:50:56.791Z,6.35
2022-11-29T03:51:57.489Z,6.19
2022-11-29T03:52:57.672Z,6.36
2022-11-29T03:53:57.863Z,6.44
2022-11-29T03:54:58.068Z,6.52
2022-11-29T03:55:58.762Z,6.38
2022-11-29T03:56:58.933Z,6.20
2022-11-29T03:57:59.123Z,6.16
2022-11-29T03:58:59.929Z,6.11
2022-11-29T04:00:00.014Z,6.05
2022-11-29T04:01:00.260Z,6.24
2022-11-29T04:02:00.386Z,6.16
2022-11-29T04:03:00.713Z,6.22
2022-11-29T04:04:00.805Z,6.27
2022-11-29T04:05:01.493Z,6.35
2022-11-29T04:06:01.688Z,6.31
2022-11-29T04:07:01.880Z,6.45
2022-11-29T04:08:02.205Z,6.33
2022-11-29T04:09:02.768Z,6.27
2022-11-29T04:10:02.955Z,6.45
2022-11-29T04:11:03.142Z,6.46
2022-11-29T04:12:03.343Z,6.24
2022-11-29T04:13:04.024Z,6.07
2022-11-29T04:14:02.417Z,6.05
2022-11-29T04:15:02.731Z,6.22
2022-11-29T04:16:04.989Z,6.12
2022-11-29T04:17:03.339Z,6.26
2022-11-29T04:18:03.649Z,6.24
2022-11-29T04:19:05.824Z,6.38
2022-11-29T04:20:04.203Z,6.38
2022-11-29T04:21:04.536Z,6.42
2022-11-29T04:22:04.837Z,6.49
2022-11-29T04:23:07.027Z,6.45
2022-11-29T04:24:05.416Z,6.49
2022-11-29T04:25:07.592Z,6.48
2022-11-29T04:26:05.973Z,6.28
2022-11-29T04:27:08.162Z,6.33
2022-11-29T04:28:06.544Z,6.36
2022-11-29T04:29:08.734Z,6.31
2022-11-29T04:30:07.114Z,6.17
2022-11-29T04:31:09.378Z,6.27
2022-11-29T04:32:07.728Z,6.20
2022-11-29T04:33:09.915Z,6.27
2022-11-29T04:34:08.295Z,6.19
2022-11-29T04:35:10.490Z,6.16
2022-11-29T04:36:08.867Z,6.16
2022-11-29T04:37:09.212Z,6.16
2022-11-29T04:38:09.515Z,6.17
2022-11-29T04:39:09.833Z,6.36
2022-11-29T04:40:12.011Z,6.16
2022-11-29T04:41:10.398Z,6.12
2022-11-29T04:42:11.514Z,6.07
2022-11-29T04:43:12.901Z,6.04
2022-11-29T04:44:11.272Z,6.12
2022-11-29T04:45:14.917Z,5.99
2022-11-29T04:46:11.876Z,6.02
2022-11-29T04:47:14.092Z,5.93
2022-11-29T04:48:12.331Z,6.07
2022-11-29T04:49:12.638Z,6.16
2022-11-29T04:50:14.839Z,6.08
2022-11-29T04:51:15.013Z,6.14
2022-11-29T04:52:13.631Z,6.17
2022-11-29T04:53:13.782Z,6.01
2022-11-29T04:54:14.094Z,6.01
2022-11-29T04:55:23.812Z,6.09
2022-11-29T04:56:15.707Z,6.12
2022-11-29T04:57:15.919Z,6.11
2022-11-29T04:58:15.276Z,6.17
2022-11-29T04:59:15.591Z,6.11
2022-11-29T05:00:15.897Z,6.16
2022-11-29T05:01:18.133Z,6.16
2022-11-29T05:02:16.501Z,6.07
2022-11-29T05:03:16.807Z,6.16
2022-11-29T05:04:17.122Z,6.28
2022-11-29T05:05:19.318Z,6.36
2022-11-29T05:06:17.694Z,6.24
2022-11-29T05:07:19.913Z,6.08
2022-11-29T05:08:18.302Z,5.97
2022-11-29T05:09:18.619Z,6.01
2022-11-29T05:10:18.921Z,6.11
2022-11-29T05:11:24.976Z,6.17
2022-11-29T05:12:22.404Z,6.09
2022-11-29T05:13:19.806Z,6.02
2022-11-29T05:14:20.104Z,5.99
2022-11-29T05:15:20.414Z,6.08
2022-11-29T05:16:20.796Z,6.09
2022-11-29T05:17:22.890Z,5.99
2022-11-29T05:18:21.278Z,6.09
2022-11-29T05:19:21.581Z,6.16
2022-11-29T05:20:21.886Z,5.94
2022-11-29T05:21:22.195Z,6.09
2022-11-29T05:22:24.384Z,6.22
2022-11-29T05:23:22.766Z,6.08
2022-11-29T05:24:23.066Z,6.09
2022-11-29T05:25:23.379Z,6.16
2022-11-29T05:26:25.545Z,6.05
2022-11-29T05:27:25.730Z,5.97
2022-11-29T05:28:25.926Z,5.99
2022-11-29T05:29:26.089Z,6.05
2022-11-29T05:30:26.793Z,6.07
2022-11-29T05:31:25.213Z,6.01
2022-11-29T05:32:27.361Z,5.83
2022-11-29T05:33:27.537Z,5.86
2022-11-29T05:34:33.281Z,6.02
2022-11-29T05:35:27.276Z,6.05
2022-11-29T05:36:28.478Z,6.02
2022-11-29T05:37:28.640Z,5.98
2022-11-29T05:38:28.799Z,6.08
2022-11-29T05:39:28.980Z,5.99
2022-11-29T05:40:29.681Z,5.87
2022-11-29T05:41:29.872Z,6.04
2022-11-29T05:42:30.069Z,6.12
2022-11-29T05:43:30.258Z,6.17
2022-11-29T05:44:30.985Z,6.17
2022-11-29T05:45:29.261Z,6.12
2022-11-29T05:46:29.605Z,6.11
2022-11-29T05:47:31.807Z,6.07
2022-11-29T05:48:30.142Z,5.99
2022-11-29T05:49:32.462Z,6.16
2022-11-29T05:50:31.675Z,6.01
2022-11-29T05:51:31.041Z,6.09
2022-11-29T05:52:31.341Z,6.14
2022-11-29T05:53:31.655Z,6.17
2022-11-29T05:54:31.982Z,6.24
2022-11-29T05:55:34.156Z,6.11
2022-11-29T05:56:32.541Z,6.07
2022-11-29T05:57:32.853Z,5.99
2022-11-29T05:58:35.034Z,6.05
2022-11-29T05:59:35.221Z,6.12
2022-11-29T06:00:35.402Z,6.17
2022-11-29T06:01:35.644Z,6.27
2022-11-29T06:02:36.319Z,6.31
2022-11-29T06:03:36.457Z,6.39
2022-11-29T06:04:36.664Z,6.38
2022-11-29T06:05:36.849Z,6.36
2022-11-29T06:06:37.059Z,6.38
2022-11-29T06:07:37.768Z,6.17
2022-11-29T06:08:37.949Z,5.98
2022-11-29T06:09:38.285Z,6.11
2022-11-29T06:10:38.499Z,6.14
2022-11-29T06:11:38.663Z,6.02
2022-11-29T06:12:39.360Z,6.17
2022-11-29T06:13:39.539Z,6.16
2022-11-29T06:14:38.049Z,5.99
2022-11-29T06:15:40.231Z,6.17
2022-11-29T06:16:38.687Z,6.20
2022-11-29T06:17:40.847Z,6.16
2022-11-29T06:18:39.109Z,6.05
2022-11-29T06:19:41.296Z,6.05
2022-11-29T06:20:41.482Z,6.09
2022-11-29T06:21:39.989Z,5.94
2022-11-29T06:22:42.153Z,6.04
2022-11-29T06:23:40.529Z,6.28
2022-11-29T06:24:42.973Z,6.01
2022-11-29T06:25:42.893Z,6.08
2022-11-29T06:26:41.417Z,6.04
2022-11-29T06:27:41.696Z,5.97
2022-11-29T06:28:42.010Z,5.86
2022-11-29T06:29:44.165Z,5.99
2022-11-29T06:30:44.359Z,5.87
2022-11-29T06:31:42.933Z,6.02
2022-11-29T06:32:43.210Z,6.02
2022-11-29T06:33:43.517Z,5.83
2022-11-29T06:34:44.105Z,5.99
2022-11-29T06:35:46.015Z,6.14
2022-11-29T06:36:47.647Z,6.19
2022-11-29T06:37:44.674Z,6.27
2022-11-29T06:38:45.626Z,6.05
2022-11-29T06:39:45.231Z,5.90
2022-11-29T06:40:47.422Z,5.99
2022-11-29T06:41:46.755Z,6.09
2022-11-29T06:42:47.985Z,6.19
2022-11-29T06:43:46.368Z,6.16
2022-11-29T06:44:47.037Z,6.09
2022-11-29T06:45:48.849Z,6.14
2022-11-29T06:46:47.293Z,5.98
2022-11-29T06:47:47.568Z,6.02
2022-11-29T06:48:49.675Z,6.04
2022-11-29T06:49:48.987Z,6.01
2022-11-29T06:50:49.317Z,6.04
2022-11-29T06:51:49.634Z,6.24
2022-11-29T06:52:49.097Z,6.28
2022-11-29T06:53:49.286Z,6.38
2022-11-29T06:54:49.627Z,6.11
2022-11-29T06:55:49.937Z,6.14
2022-11-29T06:56:50.259Z,5.99
2022-11-29T06:57:50.586Z,5.97
2022-11-29T06:58:52.769Z,6.11
2022-11-29T06:59:52.946Z,6.08
2022-11-29T07:00:51.512Z,6.24
2022-11-29T07:01:53.739Z,6.27
2022-11-29T07:02:51.975Z,6.35
2022-11-29T07:03:52.306Z,6.30
2022-11-29T07:04:52.863Z,6.35
2022-11-29T07:05:52.967Z,6.28
2022-11-29T07:06:55.157Z,6.39
2022-11-29T07:07:53.585Z,6.42
2022-11-29T07:08:53.896Z,6.12
2022-11-29T07:09:56.057Z,6.20
2022-11-29T07:10:54.464Z,6.31
2022-11-29T07:11:55.777Z,6.39
2022-11-29T07:12:55.028Z,6.36
2022-11-29T07:13:57.183Z,6.31
2022-11-29T07:14:57.367Z,6.31
2022-11-29T07:15:57.611Z,6.27
2022-11-29T07:16:57.825Z,6.22
2022-11-29T07:17:58.434Z,6.30
2022-11-29T07:18:58.598Z,6.33
2022-11-29T07:19:58.761Z,6.35
2022-11-29T07:20:58.935Z,6.46
2022-11-29T07:21:58.962Z,6.54
2022-11-29T07:22:59.828Z,6.51
2022-11-29T07:23:58.225Z,6.39
2022-11-29T07:25:00.414Z,6.33
2022-11-29T07:25:58.831Z,6.27
2022-11-29T07:26:59.805Z,6.38
2022-11-29T07:27:59.509Z,6.46
2022-11-29T07:28:59.857Z,6.35
2022-11-29T07:30:02.040Z,6.30
2022-11-29T07:31:00.580Z,6.28
2022-11-29T07:32:00.746Z,6.16
2022-11-29T07:33:01.087Z,6.20
2022-11-29T07:34:03.242Z,6.38
2022-11-29T07:35:03.423Z,6.36
2022-11-29T07:36:03.608Z,6.39
2022-11-29T07:37:03.808Z,6.39
2022-11-29T07:38:04.497Z,6.28
2022-11-29T07:39:03.667Z,6.28
2022-11-29T07:40:04.891Z,6.19
2022-11-29T07:41:05.051Z,6.36
2022-11-29T07:42:05.696Z,6.35
2022-11-29T07:43:05.931Z,6.30
2022-11-29T07:44:06.087Z,6.22
2022-11-29T07:45:06.278Z,6.16
2022-11-29T07:46:06.971Z,6.20
2022-11-29T07:47:07.210Z,6.33
2022-11-29T07:48:07.546Z,6.26
2022-11-29T07:49:07.623Z,6.38
2022-11-29T07:50:09.730Z,6.27
2022-11-29T07:51:08.474Z,6.12
2022-11-29T07:52:06.879Z,6.12
2022-11-29T07:53:07.214Z,6.17
2022-11-29T07:54:07.550Z,6.41
2022-11-29T07:55:12.227Z,6.27
2022-11-29T07:56:08.203Z,6.27
2022-11-29T07:57:08.538Z,6.30
2022-11-29T07:58:10.735Z,6.28
2022-11-29T07:59:09.170Z,6.28
2022-11-29T08:00:09.488Z,6.22
2022-11-29T08:01:09.845Z,6.20
2022-11-29T08:02:11.841Z,6.11
2022-11-29T08:03:12.382Z,6.27
2022-11-29T08:04:10.663Z,6.35
2022-11-29T08:05:11.122Z,6.36
2022-11-29T08:06:14.201Z,6.35
2022-11-29T08:07:13.634Z,6.33
2022-11-29T08:08:11.929Z,6.33
2022-11-29T08:09:14.153Z,6.20
2022-11-29T08:10:12.438Z,6.14
2022-11-29T08:11:17.052Z,6.16
2022-11-29T08:12:13.129Z,6.22
2022-11-29T08:13:13.372Z,6.35
2022-11-29T08:14:13.593Z,6.46
2022-11-29T08:15:13.821Z,6.44
2022-11-29T08:16:14.090Z,6.56
2022-11-29T08:17:16.242Z,6.51
2022-11-29T08:18:17.383Z,6.38
2022-11-29T08:19:14.824Z,6.38
2022-11-29T08:20:17.957Z,6.36
2022-11-29T08:21:17.734Z,6.16
2022-11-29T08:22:15.527Z,6.31
2022-11-29T08:23:15.881Z,6.39
2022-11-29T08:24:16.121Z,6.45
2022-11-29T08:25:18.320Z,6.30
2022-11-29T08:26:16.609Z,6.30
2022-11-29T08:27:18.803Z,6.24
2022-11-29T08:28:17.251Z,6.16
2022-11-29T08:29:17.480Z,6.19
2022-11-29T08:30:17.698Z,6.28
2022-11-29T08:31:17.989Z,6.20
2022-11-29T08:32:20.109Z,6.30
2022-11-29T08:33:18.408Z,6.30
2022-11-29T08:34:18.647Z,6.30
2022-11-29T08:35:18.865Z,6.39
2022-11-29T08:36:19.091Z,6.51
2022-11-29T08:37:21.289Z,6.38
2022-11-29T08:38:20.256Z,6.38
2022-11-29T08:39:20.996Z,6.49
2022-11-29T08:40:20.275Z,6.44
2022-11-29T08:41:22.461Z,6.31
2022-11-29T08:42:22.649Z,6.22
2022-11-29T08:43:21.924Z,6.35
2022-11-29T08:44:21.321Z,6.57
2022-11-29T08:45:21.551Z,6.44
2022-11-29T08:46:23.751Z,6.44
2022-11-29T08:47:25.383Z,6.36
2022-11-29T08:48:22.314Z,6.33
2022-11-29T08:49:24.504Z,6.42
2022-11-29T08:50:22.805Z,6.45
2022-11-29T08:51:24.041Z,6.51
2022-11-29T08:52:25.226Z,6.56
2022-11-29T08:53:23.653Z,6.64
2022-11-29T08:54:23.903Z,6.66
2022-11-29T08:55:26.094Z,6.33
2022-11-29T08:57:10.121Z,6.24
2022-11-29T08:57:39.869Z,6.28
2022-11-29T08:58:25.950Z,6.28
2022-11-29T08:59:25.235Z,6.36
2022-11-29T09:00:27.444Z,6.26
2022-11-29T09:01:25.790Z,6.44
2022-11-29T09:02:25.995Z,6.41
2022-11-29T09:03:28.187Z,6.19
2022-11-29T09:04:26.477Z,6.38
2022-11-29T09:05:28.657Z,6.48
2022-11-29T09:06:27.077Z,6.57
2022-11-29T09:07:27.491Z,6.35
2022-11-29T09:08:29.613Z,6.30
2022-11-29T09:09:28.026Z,6.20
2022-11-29T09:10:30.096Z,6.27
2022-11-29T09:11:29.525Z,6.27
2022-11-29T09:12:30.798Z,6.26
2022-11-29T09:13:29.039Z,6.31
2022-11-29T09:14:31.252Z,6.24
2022-11-29T09:15:31.458Z,6.22
2022-11-29T09:16:29.909Z,6.31
2022-11-29T09:17:32.250Z,6.39
2022-11-29T09:18:30.546Z,6.36
2022-11-29T09:19:31.735Z,6.31
2022-11-29T09:20:32.915Z,6.56
2022-11-29T09:21:32.384Z,6.52
2022-11-29T09:22:31.667Z,6.49
2022-11-29T09:23:31.897Z,6.48
2022-11-29T09:24:32.145Z,6.35
2022-11-29T09:25:34.341Z,6.36
2022-11-29T09:26:34.539Z,6.27
2022-11-29T09:27:34.744Z,6.30
2022-11-29T09:28:34.935Z,6.46
2022-11-29T09:29:35.636Z,6.30
2022-11-29T09:30:34.184Z,6.24
2022-11-29T09:31:36.281Z,6.19
2022-11-29T09:32:36.452Z,6.30
2022-11-29T09:33:36.643Z,6.41
2022-11-29T09:34:37.323Z,6.33
2022-11-29T09:35:37.514Z,6.45
2022-11-29T09:36:37.688Z,6.57
2022-11-29T09:37:37.879Z,6.56
2022-11-29T09:38:38.067Z,6.60
2022-11-29T09:39:38.761Z,6.77
2022-11-29T09:40:39.130Z,6.85
2022-11-29T09:41:41.111Z,6.79
2022-11-29T09:42:38.664Z,6.69
2022-11-29T09:43:39.859Z,6.70
2022-11-29T09:44:40.042Z,6.74
2022-11-29T09:45:40.233Z,6.78
2022-11-29T09:46:40.380Z,6.52
2022-11-29T09:47:41.066Z,6.59
2022-11-29T09:48:41.265Z,6.70
2022-11-29T09:49:41.445Z,6.77
2022-11-29T09:50:41.648Z,6.57
2022-11-29T09:51:44.347Z,6.60
2022-11-29T09:52:42.527Z,6.62
2022-11-29T09:53:42.706Z,6.72
2022-11-29T09:54:43.193Z,6.67
2022-11-29T09:55:43.587Z,6.59
2022-11-29T09:56:43.779Z,6.49
2022-11-29T09:57:45.409Z,6.46
2022-11-29T09:58:44.169Z,6.52
2022-11-29T09:59:44.340Z,6.59
2022-11-29T10:00:45.020Z,6.60
2022-11-29T10:01:45.191Z,6.42
2022-11-29T10:02:45.467Z,6.56
2022-11-29T10:03:44.014Z,6.62
2022-11-29T10:04:46.421Z,6.64
2022-11-29T10:05:46.371Z,6.74
2022-11-29T10:06:46.559Z,6.81
2022-11-29T10:07:46.751Z,6.79
2022-11-29T10:08:45.520Z,6.70
2022-11-29T10:09:45.822Z,6.66
2022-11-29T10:10:48.027Z,6.56
2022-11-29T10:11:48.209Z,6.59
2022-11-29T10:12:46.635Z,6.62
2022-11-29T10:13:46.876Z,6.78
2022-11-29T10:14:47.443Z,6.70
2022-11-29T10:15:47.373Z,6.69
2022-11-29T10:16:49.565Z,6.79
2022-11-29T10:17:49.693Z,6.92
2022-11-29T10:18:48.120Z,6.63
2022-11-29T10:19:50.369Z,6.69
2022-11-29T10:20:49.373Z,6.79
2022-11-29T10:21:50.821Z,6.78
2022-11-29T10:22:51.100Z,6.85
2022-11-29T10:23:49.519Z,6.70
2022-11-29T10:24:50.296Z,6.85
2022-11-29T10:25:50.200Z,6.96
2022-11-29T10:26:52.383Z,6.99
2022-11-29T10:27:50.790Z,7.05
2022-11-29T10:28:51.020Z,6.81
2022-11-29T10:29:51.247Z,6.87
2022-11-29T10:30:51.619Z,7.06
2022-11-29T10:31:53.775Z,6.96
2022-11-29T10:32:52.925Z,6.93
2022-11-29T10:33:54.282Z,6.89
2022-11-29T10:34:53.498Z,6.97
2022-11-29T10:35:52.911Z,6.93
2022-11-29T10:36:53.261Z,6.75
2022-11-29T10:38:22.763Z,6.97
2022-11-29T10:38:56.671Z,6.79
2022-11-29T10:39:54.109Z,6.85
2022-11-29T10:40:54.464Z,6.88
2022-11-29T10:41:54.681Z,6.84
2022-11-29T10:42:56.858Z,6.85
2022-11-29T10:43:57.041Z,6.63
2022-11-29T10:44:55.593Z,6.67
2022-11-29T10:45:55.865Z,6.74
2022-11-29T10:46:56.971Z,6.93
2022-11-29T10:47:58.349Z,6.97
2022-11-29T10:48:58.545Z,6.84
2022-11-29T10:49:57.091Z,6.78
2022-11-29T10:50:57.443Z,6.81
2022-11-29T10:51:59.616Z,6.79
2022-11-29T10:53:00.230Z,6.66
2022-11-29T10:53:58.210Z,6.88
2022-11-29T10:54:58.561Z,6.92
2022-11-29T10:55:58.788Z,6.97
2022-11-29T10:56:59.973Z,7.02
2022-11-29T10:57:59.255Z,6.82
2022-11-29T10:59:00.422Z,6.72
2022-11-29T11:00:01.623Z,6.77
2022-11-29T11:01:00.229Z,6.95
2022-11-29T11:02:02.351Z,7.06
2022-11-29T11:03:00.775Z,7.02
2022-11-29T11:04:01.190Z,6.81
2022-11-29T11:05:01.420Z,6.74
2022-11-29T11:06:01.640Z,6.78
2022-11-29T11:07:03.839Z,7.13
2022-11-29T11:08:02.319Z,7.02
2022-11-29T11:09:02.506Z,6.96
2022-11-29T11:10:02.732Z,7.03
2022-11-29T11:11:02.964Z,7.20
2022-11-29T11:12:05.148Z,7.32
2022-11-29T11:13:03.446Z,7.47
2022-11-29T11:14:03.668Z,7.35
2022-11-29T11:15:03.900Z,7.39
2022-11-29T11:16:04.136Z,7.53
2022-11-29T11:17:06.336Z,7.43
2022-11-29T11:18:04.615Z,7.21
2022-11-29T11:19:06.827Z,7.15
2022-11-29T11:20:07.011Z,7.25
2022-11-29T11:21:07.177Z,7.14
2022-11-29T11:22:06.028Z,7.11
2022-11-29T11:23:07.689Z,7.10
2022-11-29T11:24:07.867Z,6.97
2022-11-29T11:25:08.562Z,7.07
2022-11-29T11:26:08.776Z,7.18
2022-11-29T11:27:08.966Z,7.03
2022-11-29T11:28:09.141Z,7.11
2022-11-29T11:29:09.853Z,7.03
2022-11-29T11:30:10.033Z,6.97
2022-11-29T11:31:10.269Z,7.05
2022-11-29T11:32:08.921Z,7.06
2022-11-29T11:33:11.104Z,7.02
2022-11-29T11:34:09.398Z,7.13
2022-11-29T11:35:13.108Z,7.10
2022-11-29T11:36:10.992Z,7.18
2022-11-29T11:37:10.266Z,7.50
2022-11-29T11:38:12.434Z,7.42
2022-11-29T11:39:10.742Z,7.47
2022-11-29T11:40:12.947Z,7.48
2022-11-29T11:41:11.218Z,7.61
2022-11-29T11:42:11.442Z,7.39
2022-11-29T11:43:11.786Z,7.33
2022-11-29T11:44:15.336Z,7.40
2022-11-29T11:45:15.314Z,7.45
2022-11-29T11:46:17.676Z,7.45
2022-11-29T11:47:14.100Z,7.35
2022-11-29T11:48:13.377Z,7.17
2022-11-29T11:49:13.740Z,7.43
2022-11-29T11:50:15.921Z,7.53
2022-11-29T11:51:16.115Z,7.57
2022-11-29T11:52:16.299Z,7.45
2022-11-29T11:53:16.486Z,7.47
2022-11-29T11:54:16.684Z,7.42
2022-11-29T11:55:17.419Z,7.57
2022-11-29T11:56:17.643Z,7.42
2022-11-29T11:57:17.805Z,7.50
2022-11-29T11:58:17.996Z,7.56
2022-11-29T11:59:18.197Z,7.63
2022-11-29T12:00:34.497Z,7.42
2022-11-29T12:01:18.248Z,7.45
2022-11-29T12:02:19.466Z,7.66
2022-11-29T12:03:19.688Z,7.77
2022-11-29T12:04:19.801Z,7.54
2022-11-29T12:05:20.011Z,7.73
2022-11-29T12:06:20.205Z,7.72
2022-11-29T12:07:33.785Z,7.67
2022-11-29T12:08:20.404Z,7.63
2022-11-29T12:09:21.537Z,7.56
2022-11-29T12:10:21.721Z,7.43
2022-11-29T12:11:21.919Z,7.35
2022-11-29T12:12:22.121Z,7.36
2022-11-29T12:13:22.825Z,7.38
2022-11-29T12:14:21.253Z,7.28
2022-11-29T12:15:23.433Z,7.40
2022-11-29T12:16:21.766Z,7.50
2022-11-29T12:17:21.981Z,7.47
2022-11-29T12:18:22.199Z,7.35
2022-11-29T12:19:22.568Z,7.47
2022-11-29T12:20:22.869Z,7.70
2022-11-29T12:21:25.087Z,7.87
2022-11-29T12:22:23.437Z,7.80
2022-11-29T12:23:23.731Z,7.87
2022-11-29T12:24:25.895Z,7.53
2022-11-29T12:25:24.201Z,7.23
2022-11-29T12:26:55.834Z,7.20
2022-11-29T12:27:25.690Z,7.10
2022-11-29T12:28:24.971Z,7.31
2022-11-29T12:29:25.317Z,7.53
2022-11-29T12:30:27.520Z,7.56
2022-11-29T12:31:25.948Z,7.47
2022-11-29T12:32:26.277Z,7.50
2022-11-29T12:33:26.621Z,7.67
2022-11-29T12:34:26.847Z,7.73
2022-11-29T12:35:29.044Z,7.57
2022-11-29T12:36:27.332Z,7.43
2022-11-29T12:37:27.777Z,7.39
2022-11-29T12:38:27.952Z,7.50
2022-11-29T12:39:28.302Z,7.57
2022-11-29T12:40:30.470Z,7.43
2022-11-29T12:41:30.653Z,7.54
2022-11-29T12:42:29.070Z,7.61
2022-11-29T12:43:30.105Z,7.73
2022-11-29T12:44:30.521Z,7.79
2022-11-29T12:45:29.936Z,7.88
2022-11-29T12:46:30.213Z,7.87
2022-11-29T12:47:36.501Z,7.88
2022-11-29T12:48:30.720Z,8.08
2022-11-29T12:49:31.082Z,8.30
2022-11-29T12:50:31.485Z,8.08
2022-11-29T12:51:31.548Z,7.80
2022-11-29T12:52:33.723Z,7.48
2022-11-29T12:53:32.021Z,7.61
2022-11-29T12:54:32.252Z,7.79
2022-11-29T12:55:34.429Z,7.70
2022-11-29T12:56:32.862Z,7.72
2022-11-29T12:57:35.036Z,7.67
2022-11-29T12:58:33.323Z,7.73
2022-11-29T12:59:33.678Z,7.66
2022-11-29T13:00:35.853Z,7.90
2022-11-29T13:01:35.189Z,7.90
2022-11-29T13:02:34.422Z,7.69
2022-11-29T13:03:34.608Z,7.39
2022-11-29T13:04:34.964Z,7.23
2022-11-29T13:05:35.185Z,7.35
2022-11-29T13:06:37.374Z,7.48
2022-11-29T13:07:35.759Z,7.28
2022-11-29T13:08:35.922Z,7.43
2022-11-29T13:09:36.155Z,7.33
2022-11-29T13:10:36.381Z,7.33
2022-11-29T13:11:38.563Z,7.25
2022-11-29T13:12:36.863Z,7.21
2022-11-29T13:13:37.095Z,7.43
2022-11-29T13:14:44.562Z,7.42
2022-11-29T13:15:38.630Z,7.56
2022-11-29T13:16:39.765Z,7.58
2022-11-29T13:17:39.926Z,7.51
2022-11-29T13:18:38.470Z,7.40
2022-11-29T13:19:38.834Z,7.50
2022-11-29T13:20:39.047Z,7.47
2022-11-29T13:21:41.242Z,7.61
2022-11-29T13:22:39.528Z,7.73